Decoded Metar for SOCA (CAYENNE in FRENCH GUYANA) (IATA:CAY) | Meteo·Mobile Aviation Weather
aviador You're here:

SOCA Decoded Metar

CAYENNE in FRENCH GUYANA
Report Time2018-10-22 23:00:00
UTC Time2018-10-22 23:12:36
Flight Rules vfr VFR
Wind090° at 04 kt
W.Decomp.*RWY 08: 3.6 kt HW 1.8 kt RCW
W.Rank090° ranks 5
Current wind is below 090° avg. (5.9)
Visibility9999 m
Phenomena:N/A
Clouds:N/A
Expected CloudBase > 1,600 ft AGL from Temp-Dew spread
CeilingNone
Temp27°C (ISA +12)
Dew Point23°C (79% RH)
Heat Index29.6°C
QNH1010 hPa
Density Alt1,890 ft
Elevation30 ft
Report Wrong Elevation
Raw Report
SOCA 222300Z AUTO 09004KT CAVOK 27/23 Q1010 NOSIG=

Extra information for SOCA:More info

Metar Taf Metar & Taf Last 4 Metars F.Rules Stats Wind Profile Meteogram Temp Stats Airport Information Weather charts Add Link Nearby VenuesMetar ALERT Operation Metar Decoded Social comments